William R Fairchild International Airport
KCLM : now visible

Aeroporto :











RITROVATECI SU...

 
LOGIN :

Iscrizione | Disclaimer

   EN    FR    IT 

 









Sommario :    VFR   VFR Marginale   IFR   IFR Intensivo   IFR Molto Intensivo
Visibilità : 
Base nubi : 
>= 8 km
>= 3000ft
5 / 8 km
1000 / 3000 ft
1500m / 5 km
500 / 1000 ft
800 / 1500m
200 / 500 ft
< 800m
< 200 ft
Simboli :   Temporali  Nebbia  Neve Forte  Precipitazioni Forti  Vento > 20 kt






- Altitudine del aeroporto : 291 ft
- Codice IATA : CLM


KCLM - William R Fairchild International

ULTIMO METAR :
  • 280453Z AUTO 00000KT 10SM OVC022 08/06 A3033 RMK AO2 SLP272 T00780056 PNO $

METARs OBSOLETI :
  • 280353Z AUTO 25004KT 10SM OVC018 08/06 A3034 RMK AO2 SLP274 T00780056 PNO $
  • 280253Z AUTO 26006KT 10SM OVC018 08/05 A3035 RMK AO2 SLP281 6//// T00830050 56010 PNO $

TAF KCLM
Valido dal 28 a 04 ore il 29 a 00 ore UTC


280349Z 2804/2824 27005KT P6SM SCT020 SCT120 BKN250
TEMPO 2804/2808 BKN018
FM280800 25005KT P6SM SCT025 BKN120 BKN250
FM281200 22005KT P6SM OVC025
FM281800 29012KT P6SM OVC030



MetMap, La meteo Aeronautica in un colpo d'occhio ! - Copyright ORBIFLY Dicembre 2007 - Disclaimer

ORBIFLY MET'MAP TEAM :

Programmazione e sviluppo : Alexandra Zaïnal
Concezione : Baudouin d'Aumeries
Aiuto per la programmazione : Marc-Olivier Méhu
Supporto tecnico e logistico : Manuel Goepfert
Aiuto per la traduzione : Arnaldo La Scala

Contatto : metmap@orbifly.com




FONTI E CREDITI :

   NOAA       Earth
Advisory